sensor_id;sensor_type;location;lat;lon;timestamp;P1;durP1;ratioP1;P2;durP2;ratioP2
11535;SDS011;5824;49.336;8.652;2023-02-15T00:01:17;36.07;;;17.47;;
11535;SDS011;5824;49.336;8.652;2023-02-15T00:03:42;39.10;;;18.40;;
11535;SDS011;5824;49.336;8.652;2023-02-15T00:06:08;70.00;;;19.60;;
11535;SDS011;5824;49.336;8.652;2023-02-15T00:08:33;44.43;;;18.87;;
11535;SDS011;5824;49.336;8.652;2023-02-15T00:11:06;36.80;;;18.20;;
11535;SDS011;5824;49.336;8.652;2023-02-15T00:13:35;34.20;;;17.00;;
11535;SDS011;5824;49.336;8.652;2023-02-15T00:16:05;42.20;;;17.80;;
11535;SDS011;5824;49.336;8.652;2023-02-15T00:18:32;36.43;;;16.97;;
11535;SDS011;5824;49.336;8.652;2023-02-15T00:21:02;37.53;;;17.47;;
11535;SDS011;5824;49.336;8.652;2023-02-15T00:23:29;48.43;;;18.50;;
11535;SDS011;5824;49.336;8.652;2023-02-15T00:26:04;48.27;;;17.93;;
11535;SDS011;5824;49.336;8.652;2023-02-15T00:28:34;51.07;;;18.20;;
11535;SDS011;5824;49.336;8.652;2023-02-15T00:31:04;33.90;;;17.47;;
11535;SDS011;5824;49.336;8.652;2023-02-15T00:33:30;54.53;;;18.63;;
11535;SDS011;5824;49.336;8.652;2023-02-15T00:35:57;50.07;;;19.37;;
11535;SDS011;5824;49.336;8.652;2023-02-15T00:38:23;41.93;;;18.03;;
11535;SDS011;5824;49.336;8.652;2023-02-15T00:40:52;48.07;;;19.77;;
11535;SDS011;5824;49.336;8.652;2023-02-15T00:43:18;46.57;;;18.40;;
11535;SDS011;5824;49.336;8.652;2023-02-15T00:45:44;44.60;;;17.17;;
11535;SDS011;5824;49.336;8.652;2023-02-15T00:48:10;45.53;;;18.37;;
11535;SDS011;5824;49.336;8.652;2023-02-15T00:50:36;80.70;;;19.10;;
11535;SDS011;5824;49.336;8.652;2023-02-15T00:53:02;47.63;;;18.10;;
11535;SDS011;5824;49.336;8.652;2023-02-15T00:55:27;40.00;;;18.03;;
11535;SDS011;5824;49.336;8.652;2023-02-15T00:57:53;42.77;;;19.40;;
11535;SDS011;5824;49.336;8.652;2023-02-15T01:00:18;38.93;;;17.63;;
11535;SDS011;5824;49.336;8.652;2023-02-15T01:02:44;37.97;;;18.07;;
11535;SDS011;5824;49.336;8.652;2023-02-15T01:05:09;37.37;;;16.97;;
11535;SDS011;5824;49.336;8.652;2023-02-15T01:07:35;39.37;;;18.10;;
11535;SDS011;5824;49.336;8.652;2023-02-15T01:10:00;38.93;;;17.43;;
11535;SDS011;5824;49.336;8.652;2023-02-15T01:12:26;42.87;;;16.90;;
11535;SDS011;5824;49.336;8.652;2023-02-15T01:14:51;46.53;;;18.57;;
11535;SDS011;5824;49.336;8.652;2023-02-15T01:17:17;44.70;;;18.00;;
11535;SDS011;5824;49.336;8.652;2023-02-15T01:19:42;50.40;;;19.17;;
11535;SDS011;5824;49.336;8.652;2023-02-15T01:22:08;38.90;;;17.60;;
11535;SDS011;5824;49.336;8.652;2023-02-15T01:24:33;63.93;;;18.40;;
11535;SDS011;5824;49.336;8.652;2023-02-15T01:26:59;45.57;;;18.10;;
11535;SDS011;5824;49.336;8.652;2023-02-15T01:29:24;43.47;;;17.90;;
11535;SDS011;5824;49.336;8.652;2023-02-15T01:31:50;60.30;;;18.03;;
11535;SDS011;5824;49.336;8.652;2023-02-15T01:34:15;57.17;;;18.00;;
11535;SDS011;5824;49.336;8.652;2023-02-15T01:36:41;47.83;;;18.30;;
11535;SDS011;5824;49.336;8.652;2023-02-15T01:39:07;59.43;;;17.80;;
11535;SDS011;5824;49.336;8.652;2023-02-15T01:41:33;62.73;;;18.00;;
11535;SDS011;5824;49.336;8.652;2023-02-15T01:43:59;61.83;;;17.87;;
11535;SDS011;5824;49.336;8.652;2023-02-15T01:46:38;70.73;;;17.90;;
11535;SDS011;5824;49.336;8.652;2023-02-15T01:49:14;54.60;;;18.60;;
11535;SDS011;5824;49.336;8.652;2023-02-15T01:51:42;36.30;;;17.07;;
11535;SDS011;5824;49.336;8.652;2023-02-15T01:54:27;57.43;;;17.43;;
11535;SDS011;5824;49.336;8.652;2023-02-15T01:56:59;52.50;;;17.90;;
11535;SDS011;5824;49.336;8.652;2023-02-15T01:59:31;49.77;;;17.20;;
11535;SDS011;5824;49.336;8.652;2023-02-15T02:02:00;69.73;;;18.90;;
11535;SDS011;5824;49.336;8.652;2023-02-15T02:04:34;55.70;;;17.47;;
11535;SDS011;5824;49.336;8.652;2023-02-15T02:07:04;42.63;;;16.63;;
11535;SDS011;5824;49.336;8.652;2023-02-15T02:09:31;58.83;;;17.47;;
11535;SDS011;5824;49.336;8.652;2023-02-15T02:11:57;42.63;;;16.50;;
11535;SDS011;5824;49.336;8.652;2023-02-15T02:14:23;38.43;;;16.80;;
11535;SDS011;5824;49.336;8.652;2023-02-15T02:16:57;39.13;;;16.70;;
11535;SDS011;5824;49.336;8.652;2023-02-15T02:19:50;57.33;;;19.33;;
11535;SDS011;5824;49.336;8.652;2023-02-15T02:22:47;38.57;;;17.33;;
11535;SDS011;5824;49.336;8.652;2023-02-15T02:28:46;33.00;;;15.97;;
11535;SDS011;5824;49.336;8.652;2023-02-15T02:37:06;35.60;;;16.57;;
11535;SDS011;5824;49.336;8.652;2023-02-15T02:42:27;49.13;;;17.73;;
11535;SDS011;5824;49.336;8.652;2023-02-15T02:45:16;35.47;;;15.40;;
11535;SDS011;5824;49.336;8.652;2023-02-15T02:47:50;40.27;;;17.03;;
11535;SDS011;5824;49.336;8.652;2023-02-15T02:50:22;36.77;;;16.90;;
11535;SDS011;5824;49.336;8.652;2023-02-15T02:52:51;39.20;;;17.83;;
11535;SDS011;5824;49.336;8.652;2023-02-15T02:55:29;36.33;;;16.50;;
11535;SDS011;5824;49.336;8.652;2023-02-15T02:58:02;37.83;;;17.13;;
11535;SDS011;5824;49.336;8.652;2023-02-15T03:00:34;34.60;;;16.57;;
11535;SDS011;5824;49.336;8.652;2023-02-15T03:03:11;33.77;;;16.20;;
11535;SDS011;5824;49.336;8.652;2023-02-15T03:05:44;40.23;;;16.97;;
11535;SDS011;5824;49.336;8.652;2023-02-15T03:08:13;34.90;;;16.90;;
11535;SDS011;5824;49.336;8.652;2023-02-15T03:10:46;36.83;;;17.70;;
11535;SDS011;5824;49.336;8.652;2023-02-15T03:13:13;37.53;;;17.50;;
11535;SDS011;5824;49.336;8.652;2023-02-15T03:15:40;42.13;;;18.67;;
11535;SDS011;5824;49.336;8.652;2023-02-15T03:18:28;34.93;;;16.73;;
11535;SDS011;5824;49.336;8.652;2023-02-15T03:20:56;41.50;;;18.00;;
11535;SDS011;5824;49.336;8.652;2023-02-15T03:23:26;36.93;;;16.90;;
11535;SDS011;5824;49.336;8.652;2023-02-15T03:25:59;33.57;;;17.30;;
11535;SDS011;5824;49.336;8.652;2023-02-15T03:28:43;40.07;;;18.57;;
11535;SDS011;5824;49.336;8.652;2023-02-15T03:31:11;36.73;;;18.00;;
11535;SDS011;5824;49.336;8.652;2023-02-15T03:33:40;36.73;;;17.23;;
11535;SDS011;5824;49.336;8.652;2023-02-15T03:36:23;40.97;;;19.50;;
11535;SDS011;5824;49.336;8.652;2023-02-15T03:39:04;40.97;;;18.40;;
11535;SDS011;5824;49.336;8.652;2023-02-15T03:41:44;37.97;;;18.60;;
11535;SDS011;5824;49.336;8.652;2023-02-15T03:44:16;37.10;;;17.37;;
11535;SDS011;5824;49.336;8.652;2023-02-15T03:46:47;43.40;;;18.20;;
11535;SDS011;5824;49.336;8.652;2023-02-15T03:49:25;45.00;;;18.20;;
11535;SDS011;5824;49.336;8.652;2023-02-15T03:52:08;45.20;;;18.57;;
11535;SDS011;5824;49.336;8.652;2023-02-15T03:54:36;38.60;;;18.23;;
11535;SDS011;5824;49.336;8.652;2023-02-15T04:00:02;47.10;;;18.53;;
11535;SDS011;5824;49.336;8.652;2023-02-15T04:03:01;50.87;;;19.43;;
11535;SDS011;5824;49.336;8.652;2023-02-15T04:05:45;47.43;;;18.83;;
11535;SDS011;5824;49.336;8.652;2023-02-15T04:08:10;41.53;;;17.90;;
11535;SDS011;5824;49.336;8.652;2023-02-15T04:10:37;43.10;;;18.00;;
11535;SDS011;5824;49.336;8.652;2023-02-15T04:13:20;39.33;;;17.53;;
11535;SDS011;5824;49.336;8.652;2023-02-15T04:15:47;42.57;;;19.10;;
11535;SDS011;5824;49.336;8.652;2023-02-15T04:18:49;63.20;;;19.83;;
11535;SDS011;5824;49.336;8.652;2023-02-15T04:21:32;47.77;;;16.20;;
11535;SDS011;5824;49.336;8.652;2023-02-15T04:24:17;44.70;;;17.73;;
11535;SDS011;5824;49.336;8.652;2023-02-15T04:27:02;50.23;;;20.03;;
11535;SDS011;5824;49.336;8.652;2023-02-15T04:29:29;45.40;;;18.70;;
11535;SDS011;5824;49.336;8.652;2023-02-15T04:31:55;59.23;;;20.27;;
11535;SDS011;5824;49.336;8.652;2023-02-15T04:34:23;45.30;;;19.57;;
11535;SDS011;5824;49.336;8.652;2023-02-15T04:36:49;50.90;;;18.27;;
11535;SDS011;5824;49.336;8.652;2023-02-15T04:39:15;52.13;;;18.47;;
11535;SDS011;5824;49.336;8.652;2023-02-15T04:41:41;50.77;;;19.33;;
11535;SDS011;5824;49.336;8.652;2023-02-15T04:44:07;45.37;;;19.50;;
11535;SDS011;5824;49.336;8.652;2023-02-15T04:46:32;48.23;;;19.70;;
11535;SDS011;5824;49.336;8.652;2023-02-15T04:48:58;46.53;;;20.13;;
11535;SDS011;5824;49.336;8.652;2023-02-15T04:51:23;48.93;;;20.37;;
11535;SDS011;5824;49.336;8.652;2023-02-15T04:53:49;57.47;;;20.77;;
11535;SDS011;5824;49.336;8.652;2023-02-15T04:56:17;55.57;;;20.03;;
11535;SDS011;5824;49.336;8.652;2023-02-15T04:58:43;47.97;;;20.40;;
11535;SDS011;5824;49.336;8.652;2023-02-15T05:01:08;52.97;;;20.73;;
11535;SDS011;5824;49.336;8.652;2023-02-15T05:03:34;46.27;;;20.37;;
11535;SDS011;5824;49.336;8.652;2023-02-15T05:06:00;50.93;;;21.70;;
11535;SDS011;5824;49.336;8.652;2023-02-15T05:08:26;52.83;;;20.73;;
11535;SDS011;5824;49.336;8.652;2023-02-15T05:10:51;52.43;;;19.83;;
11535;SDS011;5824;49.336;8.652;2023-02-15T05:13:17;54.17;;;21.73;;
11535;SDS011;5824;49.336;8.652;2023-02-15T05:15:46;53.87;;;21.07;;
11535;SDS011;5824;49.336;8.652;2023-02-15T05:18:13;44.90;;;19.67;;
11535;SDS011;5824;49.336;8.652;2023-02-15T05:20:39;53.77;;;19.70;;
11535;SDS011;5824;49.336;8.652;2023-02-15T05:23:04;57.17;;;20.13;;
11535;SDS011;5824;49.336;8.652;2023-02-15T05:25:30;51.70;;;19.77;;
11535;SDS011;5824;49.336;8.652;2023-02-15T05:28:14;52.70;;;23.40;;
11535;SDS011;5824;49.336;8.652;2023-02-15T05:30:46;50.90;;;23.93;;
11535;SDS011;5824;49.336;8.652;2023-02-15T05:33:15;48.77;;;21.23;;
11535;SDS011;5824;49.336;8.652;2023-02-15T05:35:41;47.23;;;20.73;;
11535;SDS011;5824;49.336;8.652;2023-02-15T05:38:07;48.60;;;20.80;;
11535;SDS011;5824;49.336;8.652;2023-02-15T05:40:32;46.00;;;19.50;;
11535;SDS011;5824;49.336;8.652;2023-02-15T05:42:58;49.80;;;20.63;;
11535;SDS011;5824;49.336;8.652;2023-02-15T05:45:24;48.40;;;20.00;;
11535;SDS011;5824;49.336;8.652;2023-02-15T05:47:50;52.57;;;21.50;;
11535;SDS011;5824;49.336;8.652;2023-02-15T05:50:15;45.63;;;20.90;;
11535;SDS011;5824;49.336;8.652;2023-02-15T05:52:41;44.57;;;19.50;;
11535;SDS011;5824;49.336;8.652;2023-02-15T05:55:06;43.23;;;19.97;;
11535;SDS011;5824;49.336;8.652;2023-02-15T05:57:33;46.37;;;19.50;;
11535;SDS011;5824;49.336;8.652;2023-02-15T06:00:00;41.63;;;19.80;;
11535;SDS011;5824;49.336;8.652;2023-02-15T06:02:29;47.03;;;19.43;;
11535;SDS011;5824;49.336;8.652;2023-02-15T06:04:58;46.73;;;20.27;;
11535;SDS011;5824;49.336;8.652;2023-02-15T06:07:23;39.80;;;18.77;;
11535;SDS011;5824;49.336;8.652;2023-02-15T06:09:49;40.43;;;18.83;;
11535;SDS011;5824;49.336;8.652;2023-02-15T06:12:14;59.43;;;18.13;;
11535;SDS011;5824;49.336;8.652;2023-02-15T06:14:40;41.97;;;19.23;;
11535;SDS011;5824;49.336;8.652;2023-02-15T06:17:05;39.47;;;18.77;;
11535;SDS011;5824;49.336;8.652;2023-02-15T06:19:31;48.90;;;19.90;;
11535;SDS011;5824;49.336;8.652;2023-02-15T06:21:57;43.97;;;20.00;;
11535;SDS011;5824;49.336;8.652;2023-02-15T06:24:22;45.70;;;20.10;;
11535;SDS011;5824;49.336;8.652;2023-02-15T06:26:48;37.43;;;19.40;;
11535;SDS011;5824;49.336;8.652;2023-02-15T06:29:13;38.90;;;18.17;;
11535;SDS011;5824;49.336;8.652;2023-02-15T06:31:39;42.07;;;19.30;;
11535;SDS011;5824;49.336;8.652;2023-02-15T06:34:04;42.27;;;19.00;;
11535;SDS011;5824;49.336;8.652;2023-02-15T06:36:30;39.73;;;19.10;;
11535;SDS011;5824;49.336;8.652;2023-02-15T06:38:56;39.43;;;18.37;;
11535;SDS011;5824;49.336;8.652;2023-02-15T06:41:23;41.87;;;18.53;;
11535;SDS011;5824;49.336;8.652;2023-02-15T06:43:49;41.83;;;19.60;;
11535;SDS011;5824;49.336;8.652;2023-02-15T06:46:15;45.50;;;19.13;;
11535;SDS011;5824;49.336;8.652;2023-02-15T06:48:40;50.73;;;19.97;;
11535;SDS011;5824;49.336;8.652;2023-02-15T06:51:06;44.87;;;19.93;;
11535;SDS011;5824;49.336;8.652;2023-02-15T06:53:31;40.83;;;19.37;;
11535;SDS011;5824;49.336;8.652;2023-02-15T06:56:03;44.13;;;18.10;;
11535;SDS011;5824;49.336;8.652;2023-02-15T06:58:36;41.10;;;19.43;;
11535;SDS011;5824;49.336;8.652;2023-02-15T07:01:03;47.57;;;18.80;;
11535;SDS011;5824;49.336;8.652;2023-02-15T07:03:29;56.00;;;18.93;;
11535;SDS011;5824;49.336;8.652;2023-02-15T07:05:55;37.27;;;16.40;;
11535;SDS011;5824;49.336;8.652;2023-02-15T07:08:22;45.90;;;17.97;;
11535;SDS011;5824;49.336;8.652;2023-02-15T07:10:48;48.07;;;19.73;;
11535;SDS011;5824;49.336;8.652;2023-02-15T07:13:14;43.97;;;18.20;;
11535;SDS011;5824;49.336;8.652;2023-02-15T07:15:40;43.07;;;18.60;;
11535;SDS011;5824;49.336;8.652;2023-02-15T07:18:05;39.97;;;17.67;;
11535;SDS011;5824;49.336;8.652;2023-02-15T07:20:31;41.40;;;18.20;;
11535;SDS011;5824;49.336;8.652;2023-02-15T07:22:59;34.20;;;15.67;;
11535;SDS011;5824;49.336;8.652;2023-02-15T07:25:24;41.97;;;17.63;;
11535;SDS011;5824;49.336;8.652;2023-02-15T07:27:55;35.63;;;16.70;;
11535;SDS011;5824;49.336;8.652;2023-02-15T07:30:25;35.70;;;15.80;;
11535;SDS011;5824;49.336;8.652;2023-02-15T07:32:55;39.83;;;16.60;;
11535;SDS011;5824;49.336;8.652;2023-02-15T07:35:45;35.33;;;16.77;;
11535;SDS011;5824;49.336;8.652;2023-02-15T07:38:12;40.30;;;16.17;;
11535;SDS011;5824;49.336;8.652;2023-02-15T07:40:38;39.60;;;17.40;;
11535;SDS011;5824;49.336;8.652;2023-02-15T07:43:03;39.43;;;17.10;;
11535;SDS011;5824;49.336;8.652;2023-02-15T07:45:29;35.03;;;16.17;;
11535;SDS011;5824;49.336;8.652;2023-02-15T07:47:54;33.50;;;15.77;;
11535;SDS011;5824;49.336;8.652;2023-02-15T07:50:20;35.03;;;16.87;;
11535;SDS011;5824;49.336;8.652;2023-02-15T07:52:45;34.57;;;17.10;;
11535;SDS011;5824;49.336;8.652;2023-02-15T07:55:11;39.73;;;15.90;;
11535;SDS011;5824;49.336;8.652;2023-02-15T07:57:38;43.93;;;16.10;;
11535;SDS011;5824;49.336;8.652;2023-02-15T08:00:07;36.67;;;17.70;;
11535;SDS011;5824;49.336;8.652;2023-02-15T08:02:33;38.90;;;17.20;;
11535;SDS011;5824;49.336;8.652;2023-02-15T08:05:01;36.27;;;15.87;;
11535;SDS011;5824;49.336;8.652;2023-02-15T08:07:27;41.20;;;17.30;;
11535;SDS011;5824;49.336;8.652;2023-02-15T08:09:53;40.40;;;16.77;;
11535;SDS011;5824;49.336;8.652;2023-02-15T08:12:18;39.13;;;17.20;;
11535;SDS011;5824;49.336;8.652;2023-02-15T08:14:44;41.47;;;18.00;;
11535;SDS011;5824;49.336;8.652;2023-02-15T08:17:10;32.57;;;16.00;;
11535;SDS011;5824;49.336;8.652;2023-02-15T08:19:35;39.20;;;16.33;;
11535;SDS011;5824;49.336;8.652;2023-02-15T08:22:02;37.23;;;16.43;;
11535;SDS011;5824;49.336;8.652;2023-02-15T08:24:30;32.87;;;15.90;;
11535;SDS011;5824;49.336;8.652;2023-02-15T08:26:57;35.23;;;16.57;;
11535;SDS011;5824;49.336;8.652;2023-02-15T08:29:24;35.27;;;16.10;;
11535;SDS011;5824;49.336;8.652;2023-02-15T08:31:52;37.47;;;16.20;;
11535;SDS011;5824;49.336;8.652;2023-02-15T08:34:23;34.00;;;14.73;;
11535;SDS011;5824;49.336;8.652;2023-02-15T08:36:49;31.13;;;16.17;;
11535;SDS011;5824;49.336;8.652;2023-02-15T08:39:15;37.53;;;16.67;;
11535;SDS011;5824;49.336;8.652;2023-02-15T08:41:43;33.73;;;17.23;;
11535;SDS011;5824;49.336;8.652;2023-02-15T08:44:10;38.13;;;16.57;;
11535;SDS011;5824;49.336;8.652;2023-02-15T08:46:39;37.60;;;16.97;;
11535;SDS011;5824;49.336;8.652;2023-02-15T08:49:06;34.83;;;17.37;;
11535;SDS011;5824;49.336;8.652;2023-02-15T08:51:33;31.40;;;15.83;;
11535;SDS011;5824;49.336;8.652;2023-02-15T08:54:01;39.70;;;17.20;;
11535;SDS011;5824;49.336;8.652;2023-02-15T08:56:31;35.07;;;17.07;;
11535;SDS011;5824;49.336;8.652;2023-02-15T08:59:01;37.63;;;16.40;;
11535;SDS011;5824;49.336;8.652;2023-02-15T09:01:28;34.30;;;17.20;;
11535;SDS011;5824;49.336;8.652;2023-02-15T09:03:57;37.70;;;18.07;;
11535;SDS011;5824;49.336;8.652;2023-02-15T09:06:24;36.63;;;18.20;;
11535;SDS011;5824;49.336;8.652;2023-02-15T09:08:51;33.03;;;16.20;;
11535;SDS011;5824;49.336;8.652;2023-02-15T09:11:17;36.30;;;18.67;;
11535;SDS011;5824;49.336;8.652;2023-02-15T09:13:49;47.67;;;20.10;;
11535;SDS011;5824;49.336;8.652;2023-02-15T09:16:26;42.80;;;18.97;;
11535;SDS011;5824;49.336;8.652;2023-02-15T09:18:54;38.30;;;18.67;;
11535;SDS011;5824;49.336;8.652;2023-02-15T09:21:22;35.10;;;17.57;;
11535;SDS011;5824;49.336;8.652;2023-02-15T09:23:50;35.03;;;17.43;;
11535;SDS011;5824;49.336;8.652;2023-02-15T09:26:20;33.73;;;17.93;;
11535;SDS011;5824;49.336;8.652;2023-02-15T09:28:47;42.37;;;19.83;;
11535;SDS011;5824;49.336;8.652;2023-02-15T09:31:18;40.33;;;18.50;;
11535;SDS011;5824;49.336;8.652;2023-02-15T09:33:46;41.07;;;18.40;;
11535;SDS011;5824;49.336;8.652;2023-02-15T09:36:16;40.77;;;19.83;;
11535;SDS011;5824;49.336;8.652;2023-02-15T09:38:58;48.67;;;22.43;;
11535;SDS011;5824;49.336;8.652;2023-02-15T09:52:22;36.70;;;18.10;;
11535;SDS011;5824;49.336;8.652;2023-02-15T09:59:51;31.53;;;16.90;;
11535;SDS011;5824;49.336;8.652;2023-02-15T10:02:27;37.13;;;18.50;;
11535;SDS011;5824;49.336;8.652;2023-02-15T10:05:11;34.73;;;18.47;;
11535;SDS011;5824;49.336;8.652;2023-02-15T10:07:44;33.70;;;17.40;;
11535;SDS011;5824;49.336;8.652;2023-02-15T10:15:46;34.97;;;16.37;;
11535;SDS011;5824;49.336;8.652;2023-02-15T10:18:31;38.77;;;19.37;;
11535;SDS011;5824;49.336;8.652;2023-02-15T10:21:11;43.03;;;20.40;;
11535;SDS011;5824;49.336;8.652;2023-02-15T10:31:50;45.33;;;22.80;;
11535;SDS011;5824;49.336;8.652;2023-02-15T10:34:21;49.13;;;22.77;;
11535;SDS011;5824;49.336;8.652;2023-02-15T10:37:18;46.83;;;23.70;;
11535;SDS011;5824;49.336;8.652;2023-02-15T10:50:58;49.80;;;23.40;;
11535;SDS011;5824;49.336;8.652;2023-02-15T10:54:03;49.80;;;24.27;;
11535;SDS011;5824;49.336;8.652;2023-02-15T10:56:35;43.00;;;21.60;;
11535;SDS011;5824;49.336;8.652;2023-02-15T11:01:54;37.53;;;19.10;;
11535;SDS011;5824;49.336;8.652;2023-02-15T11:04:43;43.20;;;19.27;;
11535;SDS011;5824;49.336;8.652;2023-02-15T11:07:20;41.30;;;19.93;;
11535;SDS011;5824;49.336;8.652;2023-02-15T11:10:15;40.03;;;19.67;;
11535;SDS011;5824;49.336;8.652;2023-02-15T11:12:48;38.27;;;20.27;;
11535;SDS011;5824;49.336;8.652;2023-02-15T11:15:57;38.77;;;20.77;;
11535;SDS011;5824;49.336;8.652;2023-02-15T11:20:56;38.47;;;20.90;;
11535;SDS011;5824;49.336;8.652;2023-02-15T11:23:23;36.23;;;19.97;;
11535;SDS011;5824;49.336;8.652;2023-02-15T11:25:56;38.60;;;20.70;;
11535;SDS011;5824;49.336;8.652;2023-02-15T11:28:33;35.60;;;19.57;;
11535;SDS011;5824;49.336;8.652;2023-02-15T11:31:15;38.87;;;20.80;;
11535;SDS011;5824;49.336;8.652;2023-02-15T11:33:47;40.70;;;22.07;;
11535;SDS011;5824;49.336;8.652;2023-02-15T11:36:42;36.73;;;20.80;;
11535;SDS011;5824;49.336;8.652;2023-02-15T11:39:12;40.73;;;21.97;;
11535;SDS011;5824;49.336;8.652;2023-02-15T11:41:41;38.93;;;21.80;;
11535;SDS011;5824;49.336;8.652;2023-02-15T11:44:32;40.60;;;21.77;;
11535;SDS011;5824;49.336;8.652;2023-02-15T11:47:02;41.40;;;22.30;;
11535;SDS011;5824;49.336;8.652;2023-02-15T11:51:57;39.97;;;21.70;;
11535;SDS011;5824;49.336;8.652;2023-02-15T11:54:29;46.80;;;22.90;;
11535;SDS011;5824;49.336;8.652;2023-02-15T11:56:59;38.70;;;21.30;;
11535;SDS011;5824;49.336;8.652;2023-02-15T11:59:44;43.53;;;22.63;;
11535;SDS011;5824;49.336;8.652;2023-02-15T12:02:20;41.90;;;21.60;;
11535;SDS011;5824;49.336;8.652;2023-02-15T12:04:54;40.40;;;22.60;;
11535;SDS011;5824;49.336;8.652;2023-02-15T12:07:28;42.30;;;23.30;;
11535;SDS011;5824;49.336;8.652;2023-02-15T12:10:13;41.87;;;21.47;;
11535;SDS011;5824;49.336;8.652;2023-02-15T12:15:43;43.80;;;23.53;;
11535;SDS011;5824;49.336;8.652;2023-02-15T12:20:58;43.73;;;23.87;;
11535;SDS011;5824;49.336;8.652;2023-02-15T12:23:30;45.10;;;23.53;;
11535;SDS011;5824;49.336;8.652;2023-02-15T12:25:57;39.83;;;23.53;;
11535;SDS011;5824;49.336;8.652;2023-02-15T12:28:33;44.07;;;23.90;;
11535;SDS011;5824;49.336;8.652;2023-02-15T12:30:59;43.73;;;23.97;;
11535;SDS011;5824;49.336;8.652;2023-02-15T12:33:33;45.80;;;24.83;;
11535;SDS011;5824;49.336;8.652;2023-02-15T12:36:09;42.33;;;23.80;;
11535;SDS011;5824;49.336;8.652;2023-02-15T12:38:40;44.23;;;25.20;;
11535;SDS011;5824;49.336;8.652;2023-02-15T12:41:22;44.37;;;23.97;;
11535;SDS011;5824;49.336;8.652;2023-02-15T12:44:06;39.33;;;22.60;;
11535;SDS011;5824;49.336;8.652;2023-02-15T12:46:40;37.37;;;22.67;;
11535;SDS011;5824;49.336;8.652;2023-02-15T12:51:51;36.87;;;21.67;;
11535;SDS011;5824;49.336;8.652;2023-02-15T12:56:58;36.60;;;22.50;;
11535;SDS011;5824;49.336;8.652;2023-02-15T12:59:24;36.57;;;22.97;;
11535;SDS011;5824;49.336;8.652;2023-02-15T13:01:51;40.33;;;24.87;;
11535;SDS011;5824;49.336;8.652;2023-02-15T13:06:48;36.77;;;24.03;;
11535;SDS011;5824;49.336;8.652;2023-02-15T13:11:57;35.50;;;24.07;;
11535;SDS011;5824;49.336;8.652;2023-02-15T13:14:56;36.20;;;24.30;;
11535;SDS011;5824;49.336;8.652;2023-02-15T13:17:29;35.83;;;24.80;;
11535;SDS011;5824;49.336;8.652;2023-02-15T13:20:06;33.57;;;23.83;;
11535;SDS011;5824;49.336;8.652;2023-02-15T13:22:44;39.83;;;22.90;;
11535;SDS011;5824;49.336;8.652;2023-02-15T13:27:48;35.30;;;24.17;;
11535;SDS011;5824;49.336;8.652;2023-02-15T13:30:37;33.00;;;23.30;;
11535;SDS011;5824;49.336;8.652;2023-02-15T13:33:16;35.57;;;23.83;;
11535;SDS011;5824;49.336;8.652;2023-02-15T13:40:55;32.27;;;23.40;;
11535;SDS011;5824;49.336;8.652;2023-02-15T13:43:35;35.47;;;23.90;;
11535;SDS011;5824;49.336;8.652;2023-02-15T13:46:45;32.10;;;23.77;;
11535;SDS011;5824;49.336;8.652;2023-02-15T13:54:36;34.40;;;23.60;;
11535;SDS011;5824;49.336;8.652;2023-02-15T13:57:14;37.23;;;24.40;;
11535;SDS011;5824;49.336;8.652;2023-02-15T14:15:53;33.70;;;20.90;;
11535;SDS011;5824;49.336;8.652;2023-02-15T14:21:32;32.93;;;21.17;;
11535;SDS011;5824;49.336;8.652;2023-02-15T14:24:24;32.27;;;21.40;;
11535;SDS011;5824;49.336;8.652;2023-02-15T14:27:12;33.20;;;20.80;;
11535;SDS011;5824;49.336;8.652;2023-02-15T14:30:32;34.40;;;21.67;;
11535;SDS011;5824;49.336;8.652;2023-02-15T14:32:42;33.03;;;21.87;;
11535;SDS011;5824;49.336;8.652;2023-02-15T14:35:13;33.10;;;21.40;;
11535;SDS011;5824;49.336;8.652;2023-02-15T14:43:30;38.03;;;19.80;;
11535;SDS011;5824;49.336;8.652;2023-02-15T14:49:17;39.80;;;20.70;;
11535;SDS011;5824;49.336;8.652;2023-02-15T15:00:22;32.53;;;20.10;;
11535;SDS011;5824;49.336;8.652;2023-02-15T15:02:45;32.53;;;20.73;;
11535;SDS011;5824;49.336;8.652;2023-02-15T15:08:01;33.53;;;20.20;;
11535;SDS011;5824;49.336;8.652;2023-02-15T15:10:35;31.63;;;19.20;;
11535;SDS011;5824;49.336;8.652;2023-02-15T15:15:56;30.40;;;19.83;;
11535;SDS011;5824;49.336;8.652;2023-02-15T15:18:43;34.20;;;21.27;;
11535;SDS011;5824;49.336;8.652;2023-02-15T15:21:08;37.63;;;22.00;;
11535;SDS011;5824;49.336;8.652;2023-02-15T15:26:26;31.03;;;19.63;;
11535;SDS011;5824;49.336;8.652;2023-02-15T15:28:54;38.13;;;21.57;;
11535;SDS011;5824;49.336;8.652;2023-02-15T15:42:01;33.30;;;20.03;;
11535;SDS011;5824;49.336;8.652;2023-02-15T15:50:47;35.13;;;21.13;;
11535;SDS011;5824;49.336;8.652;2023-02-15T15:53:25;30.60;;;18.30;;
11535;SDS011;5824;49.336;8.652;2023-02-15T15:55:58;33.13;;;19.27;;
11535;SDS011;5824;49.336;8.652;2023-02-15T15:58:35;28.63;;;18.53;;
11535;SDS011;5824;49.336;8.652;2023-02-15T16:03:28;34.90;;;19.53;;
11535;SDS011;5824;49.336;8.652;2023-02-15T16:05:54;31.13;;;19.57;;
11535;SDS011;5824;49.336;8.652;2023-02-15T16:08:30;35.73;;;20.50;;
11535;SDS011;5824;49.336;8.652;2023-02-15T16:10:57;35.13;;;20.07;;
11535;SDS011;5824;49.336;8.652;2023-02-15T16:13:24;32.10;;;20.00;;
11535;SDS011;5824;49.336;8.652;2023-02-15T16:15:51;38.60;;;20.73;;
11535;SDS011;5824;49.336;8.652;2023-02-15T16:18:21;33.80;;;19.57;;
11535;SDS011;5824;49.336;8.652;2023-02-15T16:20:50;33.17;;;19.83;;
11535;SDS011;5824;49.336;8.652;2023-02-15T16:28:51;33.50;;;19.13;;
11535;SDS011;5824;49.336;8.652;2023-02-15T16:31:18;31.70;;;19.70;;
11535;SDS011;5824;49.336;8.652;2023-02-15T16:33:44;34.77;;;20.77;;
11535;SDS011;5824;49.336;8.652;2023-02-15T16:36:11;40.67;;;20.67;;
11535;SDS011;5824;49.336;8.652;2023-02-15T16:39:06;34.00;;;19.80;;
11535;SDS011;5824;49.336;8.652;2023-02-15T16:41:34;35.17;;;20.17;;
11535;SDS011;5824;49.336;8.652;2023-02-15T16:44:03;34.00;;;20.50;;
11535;SDS011;5824;49.336;8.652;2023-02-15T16:46:35;35.97;;;20.43;;
11535;SDS011;5824;49.336;8.652;2023-02-15T16:49:04;32.43;;;20.07;;
11535;SDS011;5824;49.336;8.652;2023-02-15T16:51:38;39.87;;;22.57;;
11535;SDS011;5824;49.336;8.652;2023-02-15T16:54:08;44.33;;;22.80;;
11535;SDS011;5824;49.336;8.652;2023-02-15T16:56:42;38.90;;;22.20;;
11535;SDS011;5824;49.336;8.652;2023-02-15T16:59:15;36.10;;;22.03;;
11535;SDS011;5824;49.336;8.652;2023-02-15T17:02:12;35.20;;;21.63;;
11535;SDS011;5824;49.336;8.652;2023-02-15T17:04:43;40.97;;;21.10;;
11535;SDS011;5824;49.336;8.652;2023-02-15T17:07:16;41.07;;;23.57;;
11535;SDS011;5824;49.336;8.652;2023-02-15T17:09:51;44.50;;;23.67;;
11535;SDS011;5824;49.336;8.652;2023-02-15T17:15:24;39.30;;;22.03;;
11535;SDS011;5824;49.336;8.652;2023-02-15T17:17:51;38.23;;;21.50;;
11535;SDS011;5824;49.336;8.652;2023-02-15T17:20:17;39.80;;;22.47;;
11535;SDS011;5824;49.336;8.652;2023-02-15T17:22:44;55.03;;;29.57;;
11535;SDS011;5824;49.336;8.652;2023-02-15T17:25:14;73.73;;;35.30;;
11535;SDS011;5824;49.336;8.652;2023-02-15T17:27:49;68.97;;;32.07;;
11535;SDS011;5824;49.336;8.652;2023-02-15T17:30:37;62.17;;;32.40;;
11535;SDS011;5824;49.336;8.652;2023-02-15T17:33:03;41.37;;;22.90;;
11535;SDS011;5824;49.336;8.652;2023-02-15T17:35:42;41.10;;;22.90;;
11535;SDS011;5824;49.336;8.652;2023-02-15T17:38:18;52.00;;;24.60;;
11535;SDS011;5824;49.336;8.652;2023-02-15T17:40:45;43.87;;;23.80;;
11535;SDS011;5824;49.336;8.652;2023-02-15T17:43:11;44.58;;;24.17;;